Banquereau: Past 24 Hour Conditions

 

Port aux Basques

02:30 AM NDT 25 April 2014
This table is a summary of hourly weather conditions for the past 24 hours.
Date / Time
(NDT)
Wind(knots) Conditions Visibility(km) Pressure(kPa) Air tempC) Relative humidity(%) Dew pointC)
25 April 2014
2:30 NE 12 gust 21 Cloudy 15 100.0 4 74 -1
1:30 NE 14 gust 28 Light Snow 15 100.0 3 74 -1
0:30 NE 20 gust 29 Light Rain 15 100.1 3 78 -1
24 April 2014
23:30 ENE 15 gust 20 Light Rain 15 100.1 2 75 -2
22:30 NE 17 gust 22 Clear 15 100.2 3 68 -3
21:30 ENE 18 gust 24 Mainly Clear 15 100.2 3 66 -3
20:30 NE 19 gust 26 Mostly Cloudy 15 100.1 4 63 -3
19:30 ENE 20 gust 28 Cloudy 15 100.1 4 60 -3
18:30 ENE 21 gust 29 Mostly Cloudy 15 100.1 5 59 -3
17:30 ENE 24 Mostly Cloudy 15 100.1 5 57 -3
16:30 ENE 20 gust 30 Mostly Cloudy 15 100.1 6 57 -2
15:30 ENE 21 gust 30 Mostly Cloudy 15 100.1 6 56 -3
14:30 E 25 gust 32 Cloudy 15 100.2 5 53 -4
13:30 E 26 gust 33 Partly Cloudy 15 100.2 5 53 -3
12:30 E 25 gust 37 Sunny 15 100.2 6 50 -4
11:30 E 22 gust 27 Sunny 15 100.3 4 62 -3
10:30 E 24 gust 32 Sunny 15 100.3 5 57 -3
9:30 E 24 gust 33 Sunny 15 100.3 4 58 -4
8:30 E 26 gust 31 Sunny 15 100.3 3 62 -4
7:30 E 18 gust 26 Sunny 15 100.3 2 65 -4
6:30 E 20 gust 27 Sunny 15 100.3 2 63 -4
5:30 E 19 Clear 15 100.3 3 64 -4
4:30 E 18 gust 26 Clear 15 100.3 3 68 -3
3:30 E 21 gust 30 Clear 15 100.3 3 71 -2
2:30 E 22 Clear 15 100.4 4 71 -1
 
Map of Atlantic - Newfoundland marine weather areas Southwestern Grand Banks - 44138 Banquereau - 44139 Tail of the Bank - 44140 Nickerson Bank - 44251 Northeast Burgeo Bank - 44255 Blanc-Sablon Airport Cap Whittle Chevery Natashquan Airport Heath Point Miscou Island Grand Étang Ingonish Beach North Mountain St.Paul Island J.A. Douglas McCurdy Sydney Airport Charlottetown Airport East Point North Cape Argentia Bonavista Burgeo Cape Race Corner Brook Daniel's Harbour Englee Ferolle Point La Scie Port aux Basques Rocky Harbour Sagona Island St. Anthony Airport St. John's Int'l Airport St. Lawrence Stephenville Airport Twillingate Winterland Wreckhouse Cartwright Airport Mary's Harbour Grates Cove Pool's Island Marticot Island Long Pond Îles de la Madeleine Airport
Legend: buoyBuoy land stationLand Station